sensor_id;sensor_type;location;lat;lon;timestamp;P1;durP1;ratioP1;P2;durP2;ratioP2
71288;SDS011;59068;52.502;9.860;2022-08-18T00:01:06;8.57;;;7.87;;
71288;SDS011;59068;52.502;9.860;2022-08-18T00:03:33;7.73;;;7.23;;
71288;SDS011;59068;52.502;9.860;2022-08-18T00:05:58;8.10;;;7.50;;
71288;SDS011;59068;52.502;9.860;2022-08-18T00:08:24;8.37;;;7.77;;
71288;SDS011;59068;52.502;9.860;2022-08-18T00:10:49;7.57;;;6.87;;
71288;SDS011;59068;52.502;9.860;2022-08-18T00:13:14;8.20;;;7.60;;
71288;SDS011;59068;52.502;9.860;2022-08-18T00:15:40;8.30;;;7.60;;
71288;SDS011;59068;52.502;9.860;2022-08-18T00:18:05;8.70;;;8.10;;
71288;SDS011;59068;52.502;9.860;2022-08-18T00:20:30;8.53;;;7.73;;
71288;SDS011;59068;52.502;9.860;2022-08-18T00:22:56;8.00;;;7.40;;
71288;SDS011;59068;52.502;9.860;2022-08-18T00:25:21;7.63;;;7.13;;
71288;SDS011;59068;52.502;9.860;2022-08-18T00:27:48;8.40;;;7.60;;
71288;SDS011;59068;52.502;9.860;2022-08-18T00:30:14;7.67;;;7.07;;
71288;SDS011;59068;52.502;9.860;2022-08-18T00:32:52;8.27;;;7.67;;
71288;SDS011;59068;52.502;9.860;2022-08-18T00:37:52;8.17;;;7.47;;
71288;SDS011;59068;52.502;9.860;2022-08-18T00:40:20;7.43;;;6.90;;
71288;SDS011;59068;52.502;9.860;2022-08-18T00:42:50;9.17;;;8.57;;
71288;SDS011;59068;52.502;9.860;2022-08-18T00:45:18;10.33;;;9.40;;
71288;SDS011;59068;52.502;9.860;2022-08-18T00:47:47;9.87;;;9.07;;
71288;SDS011;59068;52.502;9.860;2022-08-18T00:50:14;11.57;;;10.63;;
71288;SDS011;59068;52.502;9.860;2022-08-18T00:52:42;11.73;;;10.80;;
71288;SDS011;59068;52.502;9.860;2022-08-18T00:55:10;12.13;;;11.23;;
71288;SDS011;59068;52.502;9.860;2022-08-18T00:57:35;12.87;;;11.87;;
71288;SDS011;59068;52.502;9.860;2022-08-18T01:00:04;13.60;;;12.50;;
71288;SDS011;59068;52.502;9.860;2022-08-18T01:02:36;12.87;;;11.80;;
71288;SDS011;59068;52.502;9.860;2022-08-18T01:05:07;12.33;;;11.43;;
71288;SDS011;59068;52.502;9.860;2022-08-18T01:07:41;12.90;;;11.80;;
71288;SDS011;59068;52.502;9.860;2022-08-18T01:10:11;13.37;;;12.17;;
71288;SDS011;59068;52.502;9.860;2022-08-18T01:12:45;14.17;;;12.97;;
71288;SDS011;59068;52.502;9.860;2022-08-18T01:15:13;14.20;;;12.97;;
71288;SDS011;59068;52.502;9.860;2022-08-18T01:17:39;14.63;;;13.30;;
71288;SDS011;59068;52.502;9.860;2022-08-18T01:20:26;15.00;;;13.80;;
71288;SDS011;59068;52.502;9.860;2022-08-18T01:23:14;15.90;;;14.47;;
71288;SDS011;59068;52.502;9.860;2022-08-18T01:25:41;15.47;;;14.23;;
71288;SDS011;59068;52.502;9.860;2022-08-18T01:28:25;15.47;;;14.23;;
71288;SDS011;59068;52.502;9.860;2022-08-18T01:30:52;17.10;;;15.70;;
71288;SDS011;59068;52.502;9.860;2022-08-18T01:33:33;17.07;;;15.57;;
71288;SDS011;59068;52.502;9.860;2022-08-18T01:36:21;17.67;;;16.17;;
71288;SDS011;59068;52.502;9.860;2022-08-18T01:38:47;16.97;;;15.63;;
71288;SDS011;59068;52.502;9.860;2022-08-18T01:41:14;18.37;;;16.77;;
71288;SDS011;59068;52.502;9.860;2022-08-18T01:43:40;19.07;;;17.37;;
71288;SDS011;59068;52.502;9.860;2022-08-18T01:46:05;19.13;;;17.53;;
71288;SDS011;59068;52.502;9.860;2022-08-18T01:48:32;17.33;;;15.93;;
71288;SDS011;59068;52.502;9.860;2022-08-18T01:50:59;16.80;;;15.30;;
71288;SDS011;59068;52.502;9.860;2022-08-18T01:53:26;15.70;;;14.20;;
71288;SDS011;59068;52.502;9.860;2022-08-18T01:55:52;15.23;;;13.97;;
71288;SDS011;59068;52.502;9.860;2022-08-18T01:58:19;15.27;;;14.07;;
71288;SDS011;59068;52.502;9.860;2022-08-18T02:00:46;14.23;;;13.03;;
71288;SDS011;59068;52.502;9.860;2022-08-18T02:03:11;14.17;;;12.97;;
71288;SDS011;59068;52.502;9.860;2022-08-18T02:05:40;14.40;;;13.20;;
71288;SDS011;59068;52.502;9.860;2022-08-18T02:08:10;14.73;;;13.43;;
71288;SDS011;59068;52.502;9.860;2022-08-18T02:10:39;13.93;;;12.87;;
71288;SDS011;59068;52.502;9.860;2022-08-18T02:13:05;14.33;;;13.10;;
71288;SDS011;59068;52.502;9.860;2022-08-18T02:15:31;14.03;;;12.80;;
71288;SDS011;59068;52.502;9.860;2022-08-18T02:17:57;14.23;;;12.97;;
71288;SDS011;59068;52.502;9.860;2022-08-18T02:20:22;13.53;;;12.33;;
71288;SDS011;59068;52.502;9.860;2022-08-18T02:22:48;14.67;;;13.37;;
71288;SDS011;59068;52.502;9.860;2022-08-18T02:25:14;13.57;;;12.37;;
71288;SDS011;59068;52.502;9.860;2022-08-18T02:27:40;13.53;;;12.43;;
71288;SDS011;59068;52.502;9.860;2022-08-18T02:30:07;13.77;;;12.57;;
71288;SDS011;59068;52.502;9.860;2022-08-18T02:32:34;15.00;;;13.73;;
71288;SDS011;59068;52.502;9.860;2022-08-18T02:35:00;15.70;;;14.23;;
71288;SDS011;59068;52.502;9.860;2022-08-18T02:37:25;13.93;;;12.80;;
71288;SDS011;59068;52.502;9.860;2022-08-18T02:39:50;15.50;;;14.20;;
71288;SDS011;59068;52.502;9.860;2022-08-18T02:42:16;16.00;;;14.70;;
71288;SDS011;59068;52.502;9.860;2022-08-18T02:44:42;17.60;;;16.10;;
71288;SDS011;59068;52.502;9.860;2022-08-18T02:47:07;18.13;;;16.23;;
71288;SDS011;59068;52.502;9.860;2022-08-18T02:49:33;19.53;;;17.83;;
71288;SDS011;59068;52.502;9.860;2022-08-18T02:52:01;19.77;;;17.93;;
71288;SDS011;59068;52.502;9.860;2022-08-18T02:54:26;21.13;;;19.27;;
71288;SDS011;59068;52.502;9.860;2022-08-18T02:56:52;21.77;;;19.63;;
71288;SDS011;59068;52.502;9.860;2022-08-18T02:59:22;20.53;;;18.73;;
71288;SDS011;59068;52.502;9.860;2022-08-18T03:01:50;20.77;;;18.83;;
71288;SDS011;59068;52.502;9.860;2022-08-18T03:04:19;22.30;;;20.27;;
71288;SDS011;59068;52.502;9.860;2022-08-18T03:06:51;22.63;;;20.73;;
71288;SDS011;59068;52.502;9.860;2022-08-18T03:09:20;24.50;;;22.20;;
71288;SDS011;59068;52.502;9.860;2022-08-18T03:11:46;26.03;;;23.77;;
71288;SDS011;59068;52.502;9.860;2022-08-18T03:14:12;25.87;;;23.47;;
71288;SDS011;59068;52.502;9.860;2022-08-18T03:16:39;27.77;;;25.23;;
71288;SDS011;59068;52.502;9.860;2022-08-18T03:19:06;28.70;;;25.80;;
71288;SDS011;59068;52.502;9.860;2022-08-18T03:21:31;29.27;;;26.43;;
71288;SDS011;59068;52.502;9.860;2022-08-18T03:24:00;29.30;;;25.90;;
71288;SDS011;59068;52.502;9.860;2022-08-18T03:26:25;29.60;;;26.77;;
71288;SDS011;59068;52.502;9.860;2022-08-18T03:28:52;32.17;;;29.20;;
71288;SDS011;59068;52.502;9.860;2022-08-18T03:31:18;30.03;;;27.23;;
71288;SDS011;59068;52.502;9.860;2022-08-18T03:33:46;30.63;;;27.73;;
71288;SDS011;59068;52.502;9.860;2022-08-18T03:36:14;30.03;;;27.13;;
71288;SDS011;59068;52.502;9.860;2022-08-18T03:38:45;31.10;;;28.20;;
71288;SDS011;59068;52.502;9.860;2022-08-18T03:41:13;29.50;;;26.67;;
71288;SDS011;59068;52.502;9.860;2022-08-18T03:43:40;30.47;;;27.57;;
71288;SDS011;59068;52.502;9.860;2022-08-18T03:46:06;29.83;;;27.13;;
71288;SDS011;59068;52.502;9.860;2022-08-18T03:48:34;29.00;;;26.37;;
71288;SDS011;59068;52.502;9.860;2022-08-18T03:51:05;28.37;;;25.80;;
71288;SDS011;59068;52.502;9.860;2022-08-18T03:53:34;28.27;;;25.43;;
71288;SDS011;59068;52.502;9.860;2022-08-18T03:56:01;28.43;;;25.63;;
71288;SDS011;59068;52.502;9.860;2022-08-18T03:58:30;30.50;;;27.50;;
71288;SDS011;59068;52.502;9.860;2022-08-18T04:00:56;29.23;;;26.47;;
71288;SDS011;59068;52.502;9.860;2022-08-18T04:03:21;30.30;;;27.43;;
71288;SDS011;59068;52.502;9.860;2022-08-18T04:05:47;30.93;;;28.10;;
71288;SDS011;59068;52.502;9.860;2022-08-18T04:08:12;31.80;;;28.87;;
71288;SDS011;59068;52.502;9.860;2022-08-18T04:10:37;32.60;;;29.40;;
71288;SDS011;59068;52.502;9.860;2022-08-18T04:13:03;32.17;;;29.17;;
71288;SDS011;59068;52.502;9.860;2022-08-18T04:15:30;32.70;;;29.67;;
71288;SDS011;59068;52.502;9.860;2022-08-18T04:18:02;32.47;;;29.37;;
71288;SDS011;59068;52.502;9.860;2022-08-18T04:20:33;33.10;;;29.83;;
71288;SDS011;59068;52.502;9.860;2022-08-18T04:22:59;35.20;;;31.60;;
71288;SDS011;59068;52.502;9.860;2022-08-18T04:25:24;34.17;;;30.80;;
71288;SDS011;59068;52.502;9.860;2022-08-18T04:27:51;34.73;;;31.43;;
71288;SDS011;59068;52.502;9.860;2022-08-18T04:30:19;33.83;;;30.50;;
71288;SDS011;59068;52.502;9.860;2022-08-18T04:32:44;35.83;;;32.43;;
71288;SDS011;59068;52.502;9.860;2022-08-18T04:35:10;35.97;;;32.23;;
71288;SDS011;59068;52.502;9.860;2022-08-18T04:37:36;36.77;;;32.97;;
71288;SDS011;59068;52.502;9.860;2022-08-18T04:40:02;37.67;;;33.83;;
71288;SDS011;59068;52.502;9.860;2022-08-18T04:42:28;36.73;;;32.77;;
71288;SDS011;59068;52.502;9.860;2022-08-18T04:44:54;38.27;;;34.30;;
71288;SDS011;59068;52.502;9.860;2022-08-18T04:47:19;38.97;;;34.87;;
71288;SDS011;59068;52.502;9.860;2022-08-18T04:49:46;40.27;;;36.17;;
71288;SDS011;59068;52.502;9.860;2022-08-18T04:52:11;40.20;;;36.00;;
71288;SDS011;59068;52.502;9.860;2022-08-18T04:54:55;39.67;;;35.70;;
71288;SDS011;59068;52.502;9.860;2022-08-18T04:57:20;40.10;;;35.87;;
71288;SDS011;59068;52.502;9.860;2022-08-18T04:59:48;39.70;;;35.53;;
71288;SDS011;59068;52.502;9.860;2022-08-18T05:02:14;42.00;;;37.80;;
71288;SDS011;59068;52.502;9.860;2022-08-18T05:04:42;39.07;;;35.07;;
71288;SDS011;59068;52.502;9.860;2022-08-18T05:07:11;40.83;;;36.63;;
71288;SDS011;59068;52.502;9.860;2022-08-18T05:09:37;41.47;;;37.13;;
71288;SDS011;59068;52.502;9.860;2022-08-18T05:12:04;41.40;;;37.13;;
71288;SDS011;59068;52.502;9.860;2022-08-18T05:14:30;44.07;;;39.43;;
71288;SDS011;59068;52.502;9.860;2022-08-18T05:17:00;43.93;;;39.43;;
71288;SDS011;59068;52.502;9.860;2022-08-18T05:19:26;43.90;;;38.87;;
71288;SDS011;59068;52.502;9.860;2022-08-18T05:21:52;45.03;;;40.27;;
71288;SDS011;59068;52.502;9.860;2022-08-18T05:24:19;45.63;;;40.73;;
71288;SDS011;59068;52.502;9.860;2022-08-18T05:26:46;46.10;;;41.10;;
71288;SDS011;59068;52.502;9.860;2022-08-18T05:29:12;49.40;;;43.87;;
71288;SDS011;59068;52.502;9.860;2022-08-18T05:31:38;46.20;;;41.07;;
71288;SDS011;59068;52.502;9.860;2022-08-18T05:34:03;48.60;;;43.30;;
71288;SDS011;59068;52.502;9.860;2022-08-18T05:36:37;49.17;;;42.93;;
71288;SDS011;59068;52.502;9.860;2022-08-18T05:42:07;50.30;;;44.37;;
71288;SDS011;59068;52.502;9.860;2022-08-18T05:44:38;55.70;;;47.03;;
71288;SDS011;59068;52.502;9.860;2022-08-18T05:49:48;55.20;;;48.23;;
71288;SDS011;59068;52.502;9.860;2022-08-18T05:52:20;56.47;;;49.27;;
71288;SDS011;59068;52.502;9.860;2022-08-18T05:54:52;54.10;;;46.33;;
71288;SDS011;59068;52.502;9.860;2022-08-18T05:58:00;59.40;;;47.83;;
71288;SDS011;59068;52.502;9.860;2022-08-18T06:00:33;60.67;;;49.10;;
71288;SDS011;59068;52.502;9.860;2022-08-18T06:03:01;60.17;;;49.90;;
71288;SDS011;59068;52.502;9.860;2022-08-18T06:05:37;59.10;;;48.60;;
71288;SDS011;59068;52.502;9.860;2022-08-18T06:08:15;61.17;;;48.30;;
71288;SDS011;59068;52.502;9.860;2022-08-18T06:10:44;62.70;;;51.10;;
71288;SDS011;59068;52.502;9.860;2022-08-18T06:13:11;62.50;;;48.23;;
71288;SDS011;59068;52.502;9.860;2022-08-18T06:15:50;56.83;;;46.20;;
71288;SDS011;59068;52.502;9.860;2022-08-18T06:23:41;58.27;;;46.50;;
71288;SDS011;59068;52.502;9.860;2022-08-18T06:31:55;51.83;;;43.53;;
71288;SDS011;59068;52.502;9.860;2022-08-18T06:39:49;51.47;;;42.17;;
71288;SDS011;59068;52.502;9.860;2022-08-18T06:42:19;51.97;;;44.13;;
71288;SDS011;59068;52.502;9.860;2022-08-18T06:44:51;51.73;;;42.53;;
71288;SDS011;59068;52.502;9.860;2022-08-18T06:52:37;47.83;;;42.50;;
71288;SDS011;59068;52.502;9.860;2022-08-18T06:55:06;50.50;;;41.87;;
71288;SDS011;59068;52.502;9.860;2022-08-18T06:57:38;49.17;;;40.50;;
71288;SDS011;59068;52.502;9.860;2022-08-18T07:02:50;49.60;;;42.43;;
71288;SDS011;59068;52.502;9.860;2022-08-18T07:10:42;45.87;;;40.80;;
71288;SDS011;59068;52.502;9.860;2022-08-18T07:15:45;43.07;;;38.37;;
71288;SDS011;59068;52.502;9.860;2022-08-18T07:18:12;44.90;;;39.53;;
71288;SDS011;59068;52.502;9.860;2022-08-18T07:20:43;46.07;;;39.70;;
71288;SDS011;59068;52.502;9.860;2022-08-18T07:23:24;44.20;;;37.13;;
71288;SDS011;59068;52.502;9.860;2022-08-18T07:26:14;44.50;;;38.00;;
71288;SDS011;59068;52.502;9.860;2022-08-18T07:28:46;44.67;;;39.90;;
71288;SDS011;59068;52.502;9.860;2022-08-18T07:33:41;43.17;;;38.53;;
71288;SDS011;59068;52.502;9.860;2022-08-18T07:36:12;43.67;;;38.97;;
71288;SDS011;59068;52.502;9.860;2022-08-18T07:38:43;44.90;;;37.43;;
71288;SDS011;59068;52.502;9.860;2022-08-18T07:41:18;41.40;;;37.10;;
71288;SDS011;59068;52.502;9.860;2022-08-18T07:46:18;43.30;;;38.67;;
71288;SDS011;59068;52.502;9.860;2022-08-18T07:48:47;41.30;;;36.73;;
71288;SDS011;59068;52.502;9.860;2022-08-18T07:56:16;38.10;;;33.77;;
71288;SDS011;59068;52.502;9.860;2022-08-18T07:58:53;41.10;;;35.23;;
71288;SDS011;59068;52.502;9.860;2022-08-18T08:01:33;37.93;;;33.83;;
71288;SDS011;59068;52.502;9.860;2022-08-18T08:06:44;39.23;;;35.00;;
71288;SDS011;59068;52.502;9.860;2022-08-18T08:12:31;38.53;;;33.27;;
71288;SDS011;59068;52.502;9.860;2022-08-18T08:15:16;40.03;;;35.83;;
71288;SDS011;59068;52.502;9.860;2022-08-18T08:20:54;40.10;;;35.50;;
71288;SDS011;59068;52.502;9.860;2022-08-18T08:26:32;39.63;;;34.73;;
71288;SDS011;59068;52.502;9.860;2022-08-18T08:31:48;40.17;;;34.77;;
71288;SDS011;59068;52.502;9.860;2022-08-18T08:37:14;38.80;;;33.20;;
71288;SDS011;59068;52.502;9.860;2022-08-18T08:39:43;39.47;;;35.27;;
71288;SDS011;59068;52.502;9.860;2022-08-18T08:42:14;40.87;;;33.67;;
71288;SDS011;59068;52.502;9.860;2022-08-18T08:44:46;37.67;;;33.57;;
71288;SDS011;59068;52.502;9.860;2022-08-18T08:50:06;38.47;;;32.60;;
71288;SDS011;59068;52.502;9.860;2022-08-18T08:52:35;38.13;;;33.13;;
71288;SDS011;59068;52.502;9.860;2022-08-18T08:57:55;35.30;;;31.60;;
71288;SDS011;59068;52.502;9.860;2022-08-18T09:00:21;36.07;;;32.27;;
71288;SDS011;59068;52.502;9.860;2022-08-18T09:05:33;34.17;;;30.60;;
71288;SDS011;59068;52.502;9.860;2022-08-18T09:24:54;33.23;;;29.63;;
71288;SDS011;59068;52.502;9.860;2022-08-18T09:30:35;30.70;;;27.53;;
71288;SDS011;59068;52.502;9.860;2022-08-18T09:33:13;30.13;;;27.07;;
71288;SDS011;59068;52.502;9.860;2022-08-18T09:38:25;28.17;;;25.17;;
71288;SDS011;59068;52.502;9.860;2022-08-18T09:41:19;29.33;;;26.43;;
71288;SDS011;59068;52.502;9.860;2022-08-18T09:44:04;29.63;;;26.70;;
71288;SDS011;59068;52.502;9.860;2022-08-18T09:51:50;26.80;;;24.20;;
71288;SDS011;59068;52.502;9.860;2022-08-18T09:54:19;25.10;;;22.67;;
71288;SDS011;59068;52.502;9.860;2022-08-18T09:59:24;27.50;;;24.90;;
71288;SDS011;59068;52.502;9.860;2022-08-18T10:02:00;25.23;;;22.70;;
71288;SDS011;59068;52.502;9.860;2022-08-18T10:04:29;25.60;;;23.10;;
71288;SDS011;59068;52.502;9.860;2022-08-18T10:17:47;22.07;;;19.90;;
71288;SDS011;59068;52.502;9.860;2022-08-18T10:23:04;22.53;;;20.37;;
71288;SDS011;59068;52.502;9.860;2022-08-18T10:25:41;20.73;;;18.73;;
71288;SDS011;59068;52.502;9.860;2022-08-18T10:28:11;19.97;;;18.10;;
71288;SDS011;59068;52.502;9.860;2022-08-18T10:31:25;19.27;;;17.33;;
71288;SDS011;59068;52.502;9.860;2022-08-18T10:33:59;20.03;;;18.23;;
71288;SDS011;59068;52.502;9.860;2022-08-18T10:36:32;19.33;;;17.63;;
71288;SDS011;59068;52.502;9.860;2022-08-18T10:38:59;19.57;;;17.87;;
71288;SDS011;59068;52.502;9.860;2022-08-18T10:41:29;17.80;;;16.20;;
71288;SDS011;59068;52.502;9.860;2022-08-18T10:43:55;18.83;;;17.13;;
71288;SDS011;59068;52.502;9.860;2022-08-18T10:46:24;17.80;;;16.13;;
71288;SDS011;59068;52.502;9.860;2022-08-18T10:48:56;16.83;;;15.27;;
71288;SDS011;59068;52.502;9.860;2022-08-18T10:51:26;18.57;;;16.90;;
71288;SDS011;59068;52.502;9.860;2022-08-18T10:54:24;17.00;;;15.50;;
71288;SDS011;59068;52.502;9.860;2022-08-18T11:05:11;14.93;;;13.53;;
71288;SDS011;59068;52.502;9.860;2022-08-18T11:07:40;14.07;;;12.87;;
71288;SDS011;59068;52.502;9.860;2022-08-18T11:13:09;15.50;;;14.27;;
71288;SDS011;59068;52.502;9.860;2022-08-18T11:26:54;13.93;;;12.73;;
71288;SDS011;59068;52.502;9.860;2022-08-18T11:29:23;12.63;;;11.63;;
71288;SDS011;59068;52.502;9.860;2022-08-18T11:31:57;11.70;;;10.80;;
71288;SDS011;59068;52.502;9.860;2022-08-18T11:34:27;12.63;;;11.43;;
71288;SDS011;59068;52.502;9.860;2022-08-18T11:36:58;11.93;;;10.83;;
71288;SDS011;59068;52.502;9.860;2022-08-18T11:39:25;11.47;;;10.47;;
71288;SDS011;59068;52.502;9.860;2022-08-18T11:41:51;10.50;;;9.60;;
71288;SDS011;59068;52.502;9.860;2022-08-18T11:44:22;11.43;;;10.47;;
71288;SDS011;59068;52.502;9.860;2022-08-18T11:46:49;12.37;;;11.17;;
71288;SDS011;59068;52.502;9.860;2022-08-18T11:49:20;11.70;;;10.80;;
71288;SDS011;59068;52.502;9.860;2022-08-18T11:52:01;11.33;;;10.43;;
71288;SDS011;59068;52.502;9.860;2022-08-18T11:54:39;10.10;;;9.30;;
71288;SDS011;59068;52.502;9.860;2022-08-18T11:57:26;11.30;;;10.40;;
71288;SDS011;59068;52.502;9.860;2022-08-18T11:59:53;10.93;;;9.93;;
71288;SDS011;59068;52.502;9.860;2022-08-18T12:02:20;11.90;;;10.80;;
71288;SDS011;59068;52.502;9.860;2022-08-18T12:04:50;10.57;;;9.77;;
71288;SDS011;59068;52.502;9.860;2022-08-18T12:07:24;9.90;;;9.00;;
71288;SDS011;59068;52.502;9.860;2022-08-18T12:12:48;11.23;;;10.40;;
71288;SDS011;59068;52.502;9.860;2022-08-18T12:17:43;10.47;;;9.47;;
71288;SDS011;59068;52.502;9.860;2022-08-18T12:20:11;9.40;;;8.80;;
71288;SDS011;59068;52.502;9.860;2022-08-18T12:22:38;10.30;;;9.40;;
71288;SDS011;59068;52.502;9.860;2022-08-18T12:25:06;9.50;;;8.70;;
71288;SDS011;59068;52.502;9.860;2022-08-18T12:27:34;8.83;;;8.13;;
71288;SDS011;59068;52.502;9.860;2022-08-18T12:30:00;9.30;;;8.60;;
71288;SDS011;59068;52.502;9.860;2022-08-18T12:32:28;9.03;;;8.33;;
71288;SDS011;59068;52.502;9.860;2022-08-18T12:34:55;10.10;;;9.20;;
71288;SDS011;59068;52.502;9.860;2022-08-18T12:37:22;8.50;;;7.80;;
71288;SDS011;59068;52.502;9.860;2022-08-18T12:39:49;9.00;;;8.30;;
71288;SDS011;59068;52.502;9.860;2022-08-18T12:42:15;9.00;;;8.20;;
71288;SDS011;59068;52.502;9.860;2022-08-18T12:44:40;9.23;;;8.43;;
71288;SDS011;59068;52.502;9.860;2022-08-18T12:47:09;10.07;;;9.13;;
71288;SDS011;59068;52.502;9.860;2022-08-18T12:49:36;9.43;;;8.73;;
71288;SDS011;59068;52.502;9.860;2022-08-18T12:52:02;8.23;;;7.57;;
71288;SDS011;59068;52.502;9.860;2022-08-18T12:54:27;8.60;;;7.90;;
71288;SDS011;59068;52.502;9.860;2022-08-18T12:56:54;10.20;;;9.30;;
71288;SDS011;59068;52.502;9.860;2022-08-18T12:59:21;8.80;;;8.10;;
71288;SDS011;59068;52.502;9.860;2022-08-18T13:01:47;7.97;;;7.20;;
71288;SDS011;59068;52.502;9.860;2022-08-18T13:04:12;8.13;;;7.43;;
71288;SDS011;59068;52.502;9.860;2022-08-18T13:06:38;8.13;;;7.43;;
71288;SDS011;59068;52.502;9.860;2022-08-18T13:09:08;8.63;;;7.93;;
71288;SDS011;59068;52.502;9.860;2022-08-18T13:11:34;9.67;;;8.77;;
71288;SDS011;59068;52.502;9.860;2022-08-18T13:13:59;9.33;;;8.73;;
71288;SDS011;59068;52.502;9.860;2022-08-18T13:16:25;9.50;;;8.67;;
71288;SDS011;59068;52.502;9.860;2022-08-18T13:18:51;9.77;;;8.97;;
71288;SDS011;59068;52.502;9.860;2022-08-18T13:21:17;8.90;;;8.30;;
71288;SDS011;59068;52.502;9.860;2022-08-18T13:23:43;7.57;;;7.07;;
71288;SDS011;59068;52.502;9.860;2022-08-18T13:26:12;8.10;;;7.53;;
71288;SDS011;59068;52.502;9.860;2022-08-18T13:28:40;7.60;;;7.00;;
71288;SDS011;59068;52.502;9.860;2022-08-18T13:31:06;6.40;;;6.00;;
71288;SDS011;59068;52.502;9.860;2022-08-18T13:33:32;7.57;;;6.97;;
71288;SDS011;59068;52.502;9.860;2022-08-18T13:35:57;6.93;;;6.43;;
71288;SDS011;59068;52.502;9.860;2022-08-18T13:38:23;7.10;;;6.50;;
71288;SDS011;59068;52.502;9.860;2022-08-18T13:40:49;7.43;;;6.73;;
71288;SDS011;59068;52.502;9.860;2022-08-18T13:43:16;6.90;;;6.30;;
71288;SDS011;59068;52.502;9.860;2022-08-18T13:45:43;6.47;;;5.97;;
71288;SDS011;59068;52.502;9.860;2022-08-18T13:48:10;7.00;;;6.50;;
71288;SDS011;59068;52.502;9.860;2022-08-18T13:50:36;6.17;;;5.77;;
71288;SDS011;59068;52.502;9.860;2022-08-18T13:53:04;6.67;;;6.03;;
71288;SDS011;59068;52.502;9.860;2022-08-18T13:55:30;7.10;;;6.50;;
71288;SDS011;59068;52.502;9.860;2022-08-18T13:57:55;6.93;;;6.33;;
71288;SDS011;59068;52.502;9.860;2022-08-18T14:00:21;6.50;;;5.90;;
71288;SDS011;59068;52.502;9.860;2022-08-18T14:02:48;6.43;;;5.87;;
71288;SDS011;59068;52.502;9.860;2022-08-18T14:05:16;6.90;;;6.40;;
71288;SDS011;59068;52.502;9.860;2022-08-18T14:07:42;6.83;;;6.23;;
71288;SDS011;59068;52.502;9.860;2022-08-18T14:10:07;6.70;;;6.10;;
71288;SDS011;59068;52.502;9.860;2022-08-18T14:12:34;6.53;;;6.00;;
71288;SDS011;59068;52.502;9.860;2022-08-18T14:15:02;6.80;;;6.27;;
71288;SDS011;59068;52.502;9.860;2022-08-18T14:17:31;6.60;;;6.03;;
71288;SDS011;59068;52.502;9.860;2022-08-18T14:19:57;6.13;;;5.67;;
71288;SDS011;59068;52.502;9.860;2022-08-18T14:22:41;6.00;;;5.53;;
71288;SDS011;59068;52.502;9.860;2022-08-18T14:25:25;6.27;;;5.77;;
71288;SDS011;59068;52.502;9.860;2022-08-18T14:28:09;6.13;;;5.63;;
71288;SDS011;59068;52.502;9.860;2022-08-18T14:30:35;6.40;;;5.80;;
71288;SDS011;59068;52.502;9.860;2022-08-18T14:33:03;5.97;;;5.57;;
71288;SDS011;59068;52.502;9.860;2022-08-18T14:35:31;6.20;;;5.60;;
71288;SDS011;59068;52.502;9.860;2022-08-18T14:37:57;6.00;;;5.50;;
71288;SDS011;59068;52.502;9.860;2022-08-18T14:40:22;6.10;;;5.60;;
71288;SDS011;59068;52.502;9.860;2022-08-18T14:42:48;6.13;;;5.63;;
71288;SDS011;59068;52.502;9.860;2022-08-18T14:45:13;6.07;;;5.57;;
71288;SDS011;59068;52.502;9.860;2022-08-18T14:47:39;6.50;;;5.93;;
71288;SDS011;59068;52.502;9.860;2022-08-18T14:50:06;5.93;;;5.43;;
71288;SDS011;59068;52.502;9.860;2022-08-18T14:52:37;5.67;;;5.27;;
71288;SDS011;59068;52.502;9.860;2022-08-18T14:55:07;6.80;;;6.30;;
71288;SDS011;59068;52.502;9.860;2022-08-18T14:57:33;6.40;;;5.80;;
71288;SDS011;59068;52.502;9.860;2022-08-18T14:59:58;6.60;;;6.00;;
71288;SDS011;59068;52.502;9.860;2022-08-18T15:02:23;6.00;;;5.50;;
71288;SDS011;59068;52.502;9.860;2022-08-18T15:04:49;5.80;;;5.40;;
71288;SDS011;59068;52.502;9.860;2022-08-18T15:07:14;6.10;;;5.60;;
71288;SDS011;59068;52.502;9.860;2022-08-18T15:09:40;6.30;;;5.70;;
71288;SDS011;59068;52.502;9.860;2022-08-18T15:12:05;5.97;;;5.47;;
71288;SDS011;59068;52.502;9.860;2022-08-18T15:14:32;6.10;;;5.50;;
71288;SDS011;59068;52.502;9.860;2022-08-18T15:17:02;5.83;;;5.30;;
71288;SDS011;59068;52.502;9.860;2022-08-18T15:19:30;6.03;;;5.53;;
71288;SDS011;59068;52.502;9.860;2022-08-18T15:21:55;5.97;;;5.43;;
71288;SDS011;59068;52.502;9.860;2022-08-18T15:24:40;6.20;;;5.60;;
71288;SDS011;59068;52.502;9.860;2022-08-18T15:27:29;5.83;;;5.43;;
71288;SDS011;59068;52.502;9.860;2022-08-18T15:30:00;6.63;;;6.13;;
71288;SDS011;59068;52.502;9.860;2022-08-18T15:32:26;6.60;;;6.10;;
71288;SDS011;59068;52.502;9.860;2022-08-18T15:34:51;6.77;;;6.27;;
71288;SDS011;59068;52.502;9.860;2022-08-18T15:37:17;6.43;;;5.93;;
71288;SDS011;59068;52.502;9.860;2022-08-18T15:39:43;7.17;;;6.57;;
71288;SDS011;59068;52.502;9.860;2022-08-18T15:42:09;7.27;;;6.57;;
71288;SDS011;59068;52.502;9.860;2022-08-18T15:44:35;6.57;;;6.07;;
71288;SDS011;59068;52.502;9.860;2022-08-18T15:47:01;6.97;;;6.30;;
71288;SDS011;59068;52.502;9.860;2022-08-18T15:49:28;6.80;;;6.20;;
71288;SDS011;59068;52.502;9.860;2022-08-18T15:51:54;6.87;;;6.27;;
71288;SDS011;59068;52.502;9.860;2022-08-18T15:54:20;6.70;;;6.23;;
71288;SDS011;59068;52.502;9.860;2022-08-18T15:56:46;6.70;;;6.10;;
71288;SDS011;59068;52.502;9.860;2022-08-18T15:59:11;6.33;;;5.83;;
71288;SDS011;59068;52.502;9.860;2022-08-18T16:01:37;6.87;;;6.23;;
71288;SDS011;59068;52.502;9.860;2022-08-18T16:04:05;6.60;;;5.80;;
71288;SDS011;59068;52.502;9.860;2022-08-18T16:06:32;5.90;;;5.40;;
71288;SDS011;59068;52.502;9.860;2022-08-18T16:08:59;6.60;;;5.77;;
71288;SDS011;59068;52.502;9.860;2022-08-18T16:11:25;6.20;;;5.70;;
71288;SDS011;59068;52.502;9.860;2022-08-18T16:13:51;6.27;;;5.77;;
71288;SDS011;59068;52.502;9.860;2022-08-18T16:16:17;5.90;;;5.40;;
71288;SDS011;59068;52.502;9.860;2022-08-18T16:18:44;7.90;;;7.20;;
71288;SDS011;59068;52.502;9.860;2022-08-18T16:21:11;7.60;;;7.10;;
71288;SDS011;59068;52.502;9.860;2022-08-18T16:23:42;7.77;;;7.17;;
71288;SDS011;59068;52.502;9.860;2022-08-18T16:26:09;7.40;;;6.70;;
71288;SDS011;59068;52.502;9.860;2022-08-18T16:28:38;6.90;;;6.30;;
71288;SDS011;59068;52.502;9.860;2022-08-18T16:31:04;6.43;;;6.03;;
71288;SDS011;59068;52.502;9.860;2022-08-18T16:33:30;6.60;;;6.10;;
71288;SDS011;59068;52.502;9.860;2022-08-18T16:36:00;7.43;;;6.10;;
71288;SDS011;59068;52.502;9.860;2022-08-18T16:38:30;6.13;;;5.53;;
71288;SDS011;59068;52.502;9.860;2022-08-18T16:40:56;6.93;;;6.20;;
71288;SDS011;59068;52.502;9.860;2022-08-18T16:43:21;6.10;;;5.70;;
71288;SDS011;59068;52.502;9.860;2022-08-18T16:45:47;6.60;;;6.00;;
71288;SDS011;59068;52.502;9.860;2022-08-18T16:48:13;6.03;;;5.57;;
71288;SDS011;59068;52.502;9.860;2022-08-18T16:50:39;5.63;;;5.23;;
71288;SDS011;59068;52.502;9.860;2022-08-18T16:53:06;6.00;;;5.43;;
71288;SDS011;59068;52.502;9.860;2022-08-18T16:55:32;6.17;;;5.60;;
71288;SDS011;59068;52.502;9.860;2022-08-18T16:57:58;6.60;;;6.00;;
71288;SDS011;59068;52.502;9.860;2022-08-18T17:00:42;6.50;;;6.00;;
71288;SDS011;59068;52.502;9.860;2022-08-18T17:03:26;6.13;;;5.70;;
71288;SDS011;59068;52.502;9.860;2022-08-18T17:06:12;6.43;;;5.87;;
71288;SDS011;59068;52.502;9.860;2022-08-18T17:08:40;6.30;;;5.80;;
71288;SDS011;59068;52.502;9.860;2022-08-18T17:11:10;6.40;;;5.90;;